Perth, Australia
Current Conditions -  °F | °C
As of 4:00 PM on Wednesday 22 Oct 2014 (Local Time) from YPPH Reporting Station
Scattered Clouds Scattered Clouds  
Wind Chill: 73°   Ceiling: Unl
Heat Index: 73°   Visibility: 6mi
Dew Point: 59°   Wind: 18mph
Humidity: 61%   Direction: 310°NW
Pressure: 29.88"   Gusts: NA
Location:  31.96°S, 115.86°E
Report Text: YPPH 220800Z 31016KT 9999 SCT026 23/15 Q1012 NOSIG
Loading
Personal Weather Stations






























Interactive Weather Map
Tropical Storm Tracking
New forecast layout! Learn more

10-Day Weather Forecast

Advertisements
Track Severe Weather on mobile